createdAt,value
2022-11-28T00:02:09.795Z,98203.13
2022-11-28T00:05:12.059Z,98201.38
2022-11-28T00:08:13.750Z,98187.31
2022-11-28T00:11:16.166Z,98182.03
2022-11-28T00:14:18.755Z,98193.34
2022-11-28T00:17:22.131Z,98186.25
2022-11-28T00:20:23.814Z,98189.81
2022-11-28T00:23:25.472Z,98188.81
2022-11-28T00:26:27.758Z,98214.22
2022-11-28T00:29:29.301Z,98200.16
2022-11-28T00:32:32.115Z,98210.78
2022-11-28T00:35:33.537Z,98231.81
2022-11-28T00:38:35.147Z,98223.63
2022-11-28T00:41:36.887Z,98213.91
2022-11-28T00:44:38.359Z,98214.66
2022-11-28T00:47:41.250Z,98203.06
2022-11-28T00:50:42.859Z,98187.91
2022-11-28T00:53:44.940Z,98183.78
2022-11-28T00:56:46.530Z,98174.25
2022-11-28T00:59:47.960Z,98171.72
2022-11-28T01:02:51.087Z,98164.81
2022-11-28T01:05:52.620Z,98164.97
2022-11-28T01:08:54.696Z,98155.31
2022-11-28T01:11:56.515Z,98143.94
2022-11-28T01:14:58.593Z,98135.16
2022-11-28T01:18:02.703Z,98099.06
2022-11-28T01:21:04.252Z,98116.72
2022-11-28T01:24:05.910Z,98108.84
2022-11-28T01:27:08.199Z,98122.91
2022-11-28T01:30:09.996Z,98108.94
2022-11-28T01:33:13.074Z,98110.56
2022-11-28T01:36:15.414Z,98115.78
2022-11-28T01:39:16.891Z,98122.88
2022-11-28T01:42:18.631Z,98109.75
2022-11-28T01:45:22.345Z,98113.47
2022-11-28T01:48:26.990Z,98114.31
2022-11-28T01:51:29.684Z,98110.72
2022-11-28T01:54:31.830Z,98101.13
2022-11-28T01:57:33.301Z,98087.97
2022-11-28T02:00:35.032Z,98081.94
2022-11-28T02:03:42.092Z,98082.09
2022-11-28T02:06:43.779Z,98071.66
2022-11-28T02:09:45.286Z,98087.38
2022-11-28T02:12:56.294Z,98087.31
2022-11-28T02:16:05.429Z,98083.81
2022-11-28T02:19:21.465Z,98075.03
2022-11-28T02:22:25.030Z,98076.94
2022-11-28T02:25:35.949Z,98074.28
2022-11-28T02:28:55.242Z,98059.63
2022-11-28T02:32:10.789Z,98062.03
2022-11-28T02:35:15.981Z,98051.47
2022-11-28T02:38:20.701Z,98055.91
2022-11-28T02:41:29.351Z,98065.59
2022-11-28T02:44:34.295Z,98059.50
2022-11-28T02:47:38.304Z,98057.78
2022-11-28T02:50:43.021Z,98066.56
2022-11-28T02:53:45.953Z,98070.06
2022-11-28T02:56:47.655Z,98061.13
2022-11-28T02:59:50.292Z,98055.84
2022-11-28T03:02:57.496Z,98059.28
2022-11-28T03:06:00.447Z,98049.50
2022-11-28T03:09:11.444Z,98056.44
2022-11-28T03:12:20.606Z,98050.16
2022-11-28T03:15:25.285Z,98045.75
2022-11-28T03:18:31.960Z,98034.22
2022-11-28T03:21:39.074Z,98033.47
2022-11-28T03:24:43.203Z,98027.31
2022-11-28T03:27:46.900Z,98029.03
2022-11-28T03:30:51.652Z,98026.44
2022-11-28T03:33:57.135Z,98025.63
2022-11-28T03:37:04.647Z,98018.69
2022-11-28T03:40:08.587Z,98012.56
2022-11-28T03:43:12.052Z,98014.28
2022-11-28T03:46:16.166Z,98016.91
2022-11-28T03:49:22.064Z,98025.75
2022-11-28T03:52:25.346Z,98019.63
2022-11-28T03:55:30.788Z,98012.72
2022-11-28T03:58:33.987Z,98020.69
2022-11-28T04:01:40.176Z,98017.13
2022-11-28T04:04:49.427Z,98021.28
2022-11-28T04:07:52.771Z,98019.44
2022-11-28T04:10:58.004Z,98015.00
2022-11-28T04:14:04.056Z,98015.72
2022-11-28T04:17:09.205Z,98006.06
2022-11-28T04:20:14.937Z,98006.16
2022-11-28T04:23:18.451Z,98001.75
2022-11-28T04:26:22.623Z,97993.13
2022-11-28T04:29:25.058Z,97995.78
2022-11-28T04:32:27.040Z,97992.25
2022-11-28T04:35:31.685Z,98001.81
2022-11-28T04:38:34.155Z,98001.69
2022-11-28T04:41:38.522Z,98001.75
2022-11-28T04:44:44.521Z,98003.53
2022-11-28T04:47:46.293Z,97992.97
2022-11-28T04:50:50.692Z,98004.44
2022-11-28T04:53:55.684Z,98000.72
2022-11-28T04:56:59.251Z,97999.00
2022-11-28T05:00:01.595Z,97993.75
2022-11-28T05:03:04.218Z,97991.19
2022-11-28T05:06:08.221Z,97984.16
2022-11-28T05:09:10.095Z,97991.13
2022-11-28T05:12:11.607Z,97983.09
2022-11-28T05:15:13.283Z,97985.72
2022-11-28T05:18:14.839Z,97980.50
2022-11-28T05:21:17.650Z,97989.28
2022-11-28T05:24:19.131Z,97986.56
2022-11-28T05:27:20.698Z,97975.16
2022-11-28T05:30:22.372Z,97958.50
2022-11-28T05:33:23.872Z,97970.91
2022-11-28T05:36:26.807Z,97967.34
2022-11-28T05:39:28.418Z,97961.06
2022-11-28T05:42:32.214Z,97965.44
2022-11-28T05:45:33.794Z,97977.00
2022-11-28T05:48:35.321Z,97971.66
2022-11-28T05:51:38.307Z,97973.44
2022-11-28T05:54:39.775Z,97968.94
2022-11-28T05:57:41.212Z,97972.22
2022-11-28T06:00:42.728Z,97977.50
2022-11-28T06:03:44.755Z,97988.19
2022-11-28T06:06:49.735Z,97982.91
2022-11-28T06:09:51.625Z,97983.81
2022-11-28T06:12:53.153Z,97976.09
2022-11-28T06:15:54.791Z,97969.94
2022-11-28T06:18:57.284Z,97980.50
2022-11-28T06:22:00.423Z,97981.13
2022-11-28T06:25:02.091Z,97978.53
2022-11-28T06:28:03.750Z,97998.66
2022-11-28T06:31:09.440Z,98003.13
2022-11-28T06:34:11.213Z,98000.59
2022-11-28T06:37:14.811Z,97993.41
2022-11-28T06:40:16.620Z,97992.56
2022-11-28T06:43:18.097Z,97989.00
2022-11-28T06:46:20.357Z,97982.00
2022-11-28T06:49:22.425Z,97987.31
2022-11-28T06:52:25.421Z,97988.19
2022-11-28T06:55:29.267Z,97993.53
2022-11-28T06:58:30.783Z,98007.66
2022-11-28T07:01:34.208Z,97997.91
2022-11-28T07:04:35.854Z,97997.22
2022-11-28T07:07:53.350Z,97999.00
2022-11-28T07:10:57.543Z,97997.03
2022-11-28T07:14:01.073Z,97991.81
2022-11-28T07:17:02.744Z,98006.13
2022-11-28T07:20:04.926Z,98011.44
2022-11-28T07:23:07.766Z,98004.22
2022-11-28T07:26:10.542Z,98003.38
2022-11-28T07:29:14.403Z,97999.09
2022-11-28T07:32:15.936Z,98001.59
2022-11-28T07:35:17.913Z,98009.50
2022-11-28T07:38:20.877Z,98012.03
2022-11-28T07:41:26.553Z,98004.84
2022-11-28T07:44:28.417Z,98016.34
2022-11-28T07:47:30.080Z,98006.63
2022-11-28T07:50:31.594Z,98008.41
2022-11-28T07:53:34.937Z,97998.75
2022-11-28T07:57:10.700Z,98006.56
2022-11-28T08:00:02.306Z,98003.00
2022-11-28T08:03:03.767Z,97996.75
2022-11-28T08:06:05.979Z,98008.00
2022-11-28T08:09:09.191Z,98003.56
2022-11-28T08:12:11.009Z,98004.38
2022-11-28T08:15:12.770Z,98007.09
2022-11-28T08:18:14.282Z,98008.13
2022-11-28T08:21:17.261Z,98002.88
2022-11-28T08:24:20.248Z,98016.03
2022-11-28T08:27:24.251Z,98010.75
2022-11-28T08:30:25.843Z,98008.31
2022-11-28T08:33:27.715Z,98013.84
2022-11-28T08:36:29.670Z,98014.91
2022-11-28T08:39:33.430Z,98007.91
2022-11-28T08:42:35.070Z,98010.44
2022-11-28T08:45:37.042Z,98005.16
2022-11-28T08:48:38.924Z,98003.28
2022-11-28T08:51:40.337Z,98018.19
2022-11-28T08:54:43.752Z,98020.72
2022-11-28T08:57:45.291Z,98015.38
2022-11-28T09:00:49.885Z,98025.00
2022-11-28T09:03:51.927Z,98017.88
2022-11-28T09:06:53.742Z,98022.44
2022-11-28T09:09:56.787Z,98022.44
2022-11-28T09:12:58.341Z,98016.34
2022-11-28T09:15:59.958Z,98020.72
2022-11-28T09:19:02.296Z,98018.13
2022-11-28T09:22:03.786Z,98017.06
2022-11-28T09:25:07.688Z,98024.03
2022-11-28T09:28:09.386Z,98015.94
2022-11-28T09:31:12.366Z,98020.31
2022-11-28T09:34:13.991Z,98026.50
2022-11-28T09:37:15.458Z,98018.50
2022-11-28T09:40:20.608Z,98021.03
2022-11-28T09:43:28.242Z,98022.81
2022-11-28T09:46:32.273Z,98016.72
2022-11-28T09:49:40.334Z,98011.22
2022-11-28T09:52:46.446Z,98013.81
2022-11-28T09:55:50.859Z,98009.28
2022-11-28T09:58:55.856Z,98002.91
2022-11-28T10:02:04.442Z,98010.84
2022-11-28T10:05:11.055Z,98008.94
2022-11-28T10:08:19.646Z,98008.00
2022-11-28T10:11:30.811Z,98005.25
2022-11-28T10:14:44.963Z,98001.56
2022-11-28T10:17:50.443Z,98002.28
2022-11-28T10:20:54.744Z,97998.88
2022-11-28T10:23:58.452Z,97999.66
2022-11-28T10:27:03.322Z,97998.84
2022-11-28T10:30:07.798Z,98004.81
2022-11-28T10:33:12.462Z,98001.25
2022-11-28T10:36:17.258Z,97997.75
2022-11-28T10:39:18.769Z,97989.69
2022-11-28T10:42:27.063Z,97990.56
2022-11-28T10:45:31.909Z,97986.19
2022-11-28T10:48:40.644Z,97986.97
2022-11-28T10:51:48.711Z,97982.44
2022-11-28T10:54:59.486Z,97985.25
2022-11-28T10:58:08.053Z,97994.84
2022-11-28T11:01:09.979Z,97996.69
2022-11-28T11:04:17.106Z,97993.00
2022-11-28T11:07:29.344Z,97985.00
2022-11-28T11:10:36.825Z,97984.03
2022-11-28T11:13:53.260Z,97975.09
2022-11-28T11:16:56.983Z,97975.78
2022-11-28T11:19:58.428Z,97988.00
2022-11-28T11:23:00.973Z,97981.72
2022-11-28T11:26:02.485Z,97979.81
2022-11-28T11:29:05.611Z,97972.91
2022-11-28T11:32:18.402Z,97978.22
2022-11-28T11:35:21.919Z,97980.91
2022-11-28T11:38:30.306Z,97975.69
2022-11-28T11:41:34.205Z,97976.53
2022-11-28T11:44:36.214Z,97970.25
2022-11-28T11:47:42.313Z,97970.94
2022-11-28T11:50:53.209Z,97963.78
2022-11-28T11:54:04.606Z,97962.84
2022-11-28T11:57:31.563Z,97969.88
2022-11-28T12:00:31.615Z,97969.81
2022-11-28T12:03:38.063Z,97959.16
2022-11-28T12:06:42.977Z,97964.59
2022-11-28T12:09:47.140Z,97977.75
2022-11-28T12:12:48.779Z,97975.16
2022-11-28T12:15:54.655Z,97975.09
2022-11-28T12:19:02.868Z,97980.28
2022-11-28T12:22:13.068Z,97968.78
2022-11-28T12:25:20.375Z,97965.19
2022-11-28T12:28:29.712Z,97972.22
2022-11-28T12:31:37.909Z,97973.13
2022-11-28T12:34:45.890Z,97979.41
2022-11-28T12:38:10.219Z,97975.03
2022-11-28T12:41:20.984Z,97976.88
2022-11-28T12:44:26.787Z,97977.81
2022-11-28T12:47:34.230Z,97978.69
2022-11-28T12:50:38.251Z,97976.88
2022-11-28T12:53:48.827Z,97979.53
2022-11-28T12:56:54.744Z,97973.44
2022-11-28T13:00:03.597Z,97972.59
2022-11-28T13:03:12.738Z,97969.97
2022-11-28T13:06:24.832Z,97969.06
2022-11-28T13:09:30.131Z,97966.44
2022-11-28T13:12:38.730Z,97967.38
2022-11-28T13:15:49.552Z,97970.03
2022-11-28T13:18:54.519Z,97963.94
2022-11-28T13:21:57.355Z,97970.94
2022-11-28T13:25:03.349Z,97963.94
2022-11-28T13:28:11.256Z,97968.25
2022-11-28T13:31:17.637Z,97969.09
2022-11-28T13:34:19.782Z,97979.69
2022-11-28T13:40:51.435Z,97969.09
2022-11-28T13:43:56.521Z,97975.25
2022-11-28T13:47:12.281Z,97972.66
2022-11-28T13:50:32.562Z,97975.38
2022-11-28T13:53:34.072Z,97978.09
2022-11-28T13:56:39.892Z,97974.50
2022-11-28T13:59:47.225Z,97980.63
2022-11-28T14:02:50.507Z,97971.81
2022-11-28T14:05:54.869Z,97974.41
2022-11-28T14:09:02.825Z,97978.78
2022-11-28T14:12:11.588Z,97984.91
2022-11-28T14:15:21.796Z,97989.25
2022-11-28T14:18:55.739Z,97987.47
2022-11-28T14:22:01.069Z,97989.38
2022-11-28T14:25:08.323Z,97990.28
2022-11-28T14:28:19.731Z,97990.41
2022-11-28T14:31:25.205Z,97998.34
2022-11-28T14:34:37.372Z,98001.03
2022-11-28T14:37:57.907Z,97998.47
2022-11-28T14:41:01.296Z,98002.03
2022-11-28T14:44:29.954Z,98008.19
2022-11-28T14:47:35.019Z,98007.38
2022-11-28T14:50:46.730Z,98005.00
2022-11-28T14:53:49.941Z,98009.38
2022-11-28T14:56:55.286Z,98005.00
2022-11-28T15:00:04.840Z,98001.44
2022-11-28T15:03:14.525Z,98003.16
2022-11-28T15:06:19.292Z,98011.03
2022-11-28T15:09:26.379Z,98000.50
2022-11-28T15:12:33.082Z,98013.00
2022-11-28T15:15:35.531Z,98016.56
2022-11-28T15:18:38.759Z,98010.47
2022-11-28T15:21:44.897Z,98022.78
2022-11-28T15:24:51.515Z,98021.06
2022-11-28T15:27:54.262Z,98026.38
2022-11-28T15:30:57.295Z,98013.09
2022-11-28T15:34:00.236Z,98021.94
2022-11-28T15:37:03.645Z,98017.63
2022-11-28T15:40:06.193Z,98020.16
2022-11-28T15:43:12.737Z,98019.28
2022-11-28T15:46:17.299Z,98014.97
2022-11-28T15:49:29.097Z,98012.50
2022-11-28T15:52:30.760Z,98016.13
2022-11-28T15:55:33.178Z,98018.00
2022-11-28T15:58:34.724Z,98016.25
2022-11-28T16:01:36.480Z,98017.13
2022-11-28T16:04:39.859Z,98029.59
2022-11-28T16:07:42.468Z,98022.59
2022-11-28T16:10:44.174Z,98016.38
2022-11-28T16:13:45.754Z,98014.59
2022-11-28T16:16:47.465Z,98012.75
2022-11-28T16:19:52.501Z,98017.06
2022-11-28T16:22:56.988Z,98008.34
2022-11-28T16:25:59.041Z,98012.75
2022-11-28T16:29:02.471Z,98003.16
2022-11-28T16:32:08.115Z,98014.75
2022-11-28T16:35:12.678Z,98020.00
2022-11-28T16:38:15.650Z,98022.66
2022-11-28T16:41:18.120Z,98019.16
2022-11-28T16:44:22.300Z,98023.50
2022-11-28T16:47:28.296Z,98025.31
2022-11-28T16:50:31.164Z,98023.56
2022-11-28T16:53:43.107Z,98030.59
2022-11-28T16:56:44.786Z,98030.53
2022-11-28T16:59:47.009Z,98034.03
2022-11-28T17:02:51.205Z,98025.28
2022-11-28T17:05:54.194Z,98027.88
2022-11-28T17:08:55.826Z,98028.69
2022-11-28T17:12:02.779Z,98032.19
2022-11-28T17:15:04.698Z,98033.00
2022-11-28T17:18:06.151Z,98034.84
2022-11-28T17:21:11.340Z,98033.91
2022-11-28T17:24:16.054Z,98043.75
2022-11-28T17:27:17.841Z,98044.66
2022-11-28T17:30:19.516Z,98042.09
2022-11-28T17:33:23.037Z,98049.09
2022-11-28T17:36:26.764Z,98047.44
2022-11-28T17:39:28.588Z,98044.91
2022-11-28T17:42:30.490Z,98042.28
2022-11-28T17:45:34.025Z,98044.13
2022-11-28T17:48:35.841Z,98051.19
2022-11-28T17:51:39.024Z,98050.22
2022-11-28T17:54:40.609Z,98046.75
2022-11-28T17:57:42.179Z,98048.38
2022-11-28T18:00:44.480Z,98044.81
2022-11-28T18:03:45.962Z,98042.09
2022-11-28T18:06:48.807Z,98043.88
2022-11-28T18:09:50.410Z,98042.97
2022-11-28T18:12:52.286Z,98043.03
2022-11-28T18:15:53.836Z,98044.91
2022-11-28T18:18:55.300Z,98041.47
2022-11-28T18:21:58.147Z,98044.16
2022-11-28T18:24:59.698Z,98039.75
2022-11-28T18:28:01.179Z,98051.25
2022-11-28T18:31:08.266Z,98052.03
2022-11-28T18:34:11.540Z,98053.66
2022-11-28T18:37:14.377Z,98043.19
2022-11-28T18:40:15.890Z,98058.94
2022-11-28T18:43:17.544Z,98055.38
2022-11-28T18:46:19.280Z,98057.13
2022-11-28T18:49:20.882Z,98064.13
2022-11-28T18:52:23.721Z,98065.97
2022-11-28T18:55:25.359Z,98057.34
2022-11-28T18:58:26.811Z,98072.22
2022-11-28T19:01:30.526Z,98069.34
2022-11-28T19:04:32.304Z,98067.50
2022-11-28T19:07:35.660Z,98067.38
2022-11-28T19:10:37.444Z,98065.53
2022-11-28T19:13:39.354Z,98066.41
2022-11-28T19:16:41.098Z,98069.03
2022-11-28T19:19:44.305Z,98072.53
2022-11-28T19:22:47.400Z,98079.56
2022-11-28T19:25:49.189Z,98076.06
2022-11-28T19:28:51.148Z,98078.69
2022-11-28T19:31:52.846Z,98082.19
2022-11-28T19:34:54.632Z,98081.34
2022-11-28T19:37:57.641Z,98084.78
2022-11-28T19:40:59.414Z,98079.56
2022-11-28T19:44:01.096Z,98080.38
2022-11-28T19:47:02.660Z,98085.59
2022-11-28T19:50:04.767Z,98081.22
2022-11-28T19:53:07.601Z,98085.66
2022-11-28T19:56:11.104Z,98079.50
2022-11-28T19:59:13.225Z,98084.78
2022-11-28T20:02:14.804Z,98090.09
2022-11-28T20:05:16.451Z,98095.38
2022-11-28T20:08:19.462Z,98097.22
2022-11-28T20:11:21.974Z,98095.44
2022-11-28T20:14:23.492Z,98097.09
2022-11-28T20:17:25.075Z,98097.22
2022-11-28T20:20:26.518Z,98108.72
2022-11-28T20:23:29.495Z,98109.56
2022-11-28T20:26:31.974Z,98109.59
2022-11-28T20:29:33.657Z,98110.50
2022-11-28T20:32:35.212Z,98117.53
2022-11-28T20:35:36.815Z,98121.03
2022-11-28T20:38:39.841Z,98106.16
2022-11-28T20:41:41.851Z,98116.66
2022-11-28T20:44:43.298Z,98115.81
2022-11-28T20:47:49.604Z,98117.53
2022-11-28T20:50:51.783Z,98118.38
2022-11-28T20:53:55.102Z,98111.34
2022-11-28T20:57:20.243Z,98113.09
2022-11-28T21:00:23.517Z,98122.81
2022-11-28T21:03:27.833Z,98115.75
2022-11-28T21:06:29.464Z,98122.81
2022-11-28T21:09:32.381Z,98121.03
2022-11-28T21:12:33.933Z,98124.59
2022-11-28T21:15:38.342Z,98123.69
2022-11-28T21:18:40.745Z,98121.03
2022-11-28T21:21:43.226Z,98125.47
2022-11-28T21:24:49.188Z,98119.25
2022-11-28T21:27:50.671Z,98126.31
2022-11-28T21:30:52.141Z,98126.25
2022-11-28T21:33:54.536Z,98126.31
2022-11-28T21:36:56.038Z,98128.13
2022-11-28T21:39:59.259Z,98130.75
2022-11-28T21:43:00.959Z,98129.03
2022-11-28T21:46:03.191Z,98129.91
2022-11-28T21:49:04.817Z,98132.53
2022-11-28T21:52:08.015Z,98129.03
2022-11-28T21:55:10.941Z,98130.75
2022-11-28T21:58:12.398Z,98128.13
2022-11-28T22:01:14.223Z,98128.13
2022-11-28T22:04:16.154Z,98130.75
2022-11-28T22:07:17.762Z,98127.31
2022-11-28T22:10:20.646Z,98122.00
2022-11-28T22:13:22.141Z,98122.94
2022-11-28T22:16:24.140Z,98120.41
2022-11-28T22:19:25.893Z,98116.88
2022-11-28T22:22:27.504Z,98117.81
2022-11-28T22:25:30.424Z,98120.44
2022-11-28T22:28:32.382Z,98120.50
2022-11-28T22:31:34.014Z,98121.44
2022-11-28T22:34:40.427Z,98126.59
2022-11-28T22:37:41.946Z,98128.34
2022-11-28T22:40:44.852Z,98127.34
2022-11-28T22:43:46.839Z,98129.03
2022-11-28T22:46:48.483Z,98139.63
2022-11-28T22:49:49.908Z,98136.06
2022-11-28T22:52:51.482Z,98142.19
2022-11-28T22:55:54.307Z,98135.97
2022-11-28T22:58:56.260Z,98138.50
2022-11-28T23:01:58.153Z,98145.59
2022-11-28T23:04:59.696Z,98142.19
2022-11-28T23:08:01.197Z,98153.69
2022-11-28T23:11:07.050Z,98149.28
2022-11-28T23:14:10.175Z,98154.50
2022-11-28T23:17:11.844Z,98146.44
2022-11-28T23:20:14.475Z,98152.44
2022-11-28T23:23:16.118Z,98151.44
2022-11-28T23:26:19.714Z,98152.19
2022-11-28T23:29:21.346Z,98153.91
2022-11-28T23:32:22.844Z,98145.06
2022-11-28T23:35:24.325Z,98154.78
2022-11-28T23:38:25.807Z,98151.31
2022-11-28T23:41:29.699Z,98153.84
2022-11-28T23:44:31.227Z,98152.13
2022-11-28T23:47:32.827Z,98153.06
2022-11-28T23:50:34.600Z,98162.13
2022-11-28T23:53:36.639Z,98158.66
2022-11-28T23:56:40.182Z,98161.34
2022-11-28T23:59:41.694Z,98165.78
